Browse Source

First version

master
LeOSW42 8 years ago
parent
commit
cb60701513
  1. 370
      iFrameGPX/GPS/47909.gpx
  2. 490
      iFrameGPX/GPS/47926.gpx
  3. 280
      iFrameGPX/GPS/HrpJ1.gpx
  4. 480
      iFrameGPX/GPS/HrpJ2.gpx
  5. 452
      iFrameGPX/GPS/HrpJ3.gpx
  6. 132
      iFrameGPX/GPS/HrpJ36.gpx
  7. 1048
      iFrameGPX/GPS/HrpJ37.gpx
  8. 544
      iFrameGPX/GPS/HrpJ38.gpx
  9. 647
      iFrameGPX/GPS/HrpJ39.gpx
  10. 448
      iFrameGPX/GPS/HrpJ4.gpx
  11. 404
      iFrameGPX/GPS/HrpJ5.gpx
  12. 764
      iFrameGPX/GPS/HrpJ6.gpx
  13. 548
      iFrameGPX/GPS/HrpJ7.gpx
  14. 812
      iFrameGPX/GPS/HrpJ8.gpx
  15. 202
      iFrameGPX/index.php
  16. 60
      iFrameGPX/leaflet-cluster/MarkerCluster.Default.css
  17. 6
      iFrameGPX/leaflet-cluster/MarkerCluster.css
  18. 2163
      iFrameGPX/leaflet-cluster/leaflet.markercluster-src.js
  19. 6
      iFrameGPX/leaflet-cluster/leaflet.markercluster.js
  20. 22
      iFrameGPX/leaflet-elevation/.gitattributes
  21. 221
      iFrameGPX/leaflet-elevation/.gitignore
  22. 1
      iFrameGPX/leaflet-elevation/Leaflet.Elevation-0.0.2.css
  23. 2
      iFrameGPX/leaflet-elevation/Leaflet.Elevation-0.0.2.min.js
  24. 5
      iFrameGPX/leaflet-elevation/d3.v3.min.js
  25. BIN
      iFrameGPX/leaflet-elevation/images/elevation.png
  26. 12
      iFrameGPX/leaflet-fullscreen/.jshintrc
  27. 6
      iFrameGPX/leaflet-fullscreen/Control.FullScreen.css
  28. 164
      iFrameGPX/leaflet-fullscreen/Control.FullScreen.js
  29. 22
      iFrameGPX/leaflet-fullscreen/LICENSE
  30. 68
      iFrameGPX/leaflet-fullscreen/README.md
  31. 30
      iFrameGPX/leaflet-fullscreen/bower.json
  32. BIN
      iFrameGPX/leaflet-fullscreen/icon-fullscreen-2x-dark.png
  33. BIN
      iFrameGPX/leaflet-fullscreen/icon-fullscreen-2x.png
  34. BIN
      iFrameGPX/leaflet-fullscreen/icon-fullscreen-dark.png
  35. BIN
      iFrameGPX/leaflet-fullscreen/icon-fullscreen.png
  36. 48
      iFrameGPX/leaflet-fullscreen/index.html
  37. 25
      iFrameGPX/leaflet-fullscreen/package.json
  38. 24
      iFrameGPX/leaflet-gpx/LICENSE
  39. 147
      iFrameGPX/leaflet-gpx/README.md
  40. BIN
      iFrameGPX/leaflet-gpx/finish.png
  41. 358
      iFrameGPX/leaflet-gpx/gpx.js
  42. BIN
      iFrameGPX/leaflet-gpx/pin-icon-end.png
  43. BIN
      iFrameGPX/leaflet-gpx/pin-icon-start.png
  44. BIN
      iFrameGPX/leaflet-gpx/pin-shadow.png
  45. BIN
      iFrameGPX/leaflet-gpx/start.png
  46. 27
      iFrameGPX/leaflet-photo/Leaflet.Photo.css
  47. 83
      iFrameGPX/leaflet-photo/Leaflet.Photo.js
  48. 6
      iFrameGPX/leaflet-photo/reqwest.min.js
  49. 19
      iFrameGPX/leaflet-wheelscroll/L.Control.MouseScroll.css
  50. 44
      iFrameGPX/leaflet-wheelscroll/L.Control.MouseScroll.js
  51. BIN
      iFrameGPX/leaflet-wheelscroll/imgs/wheel-dark.png
  52. BIN
      iFrameGPX/leaflet-wheelscroll/imgs/wheel.png
  53. BIN
      iFrameGPX/leaflet-wheelscroll/imgs/wheel_over-dark.png
  54. BIN
      iFrameGPX/leaflet-wheelscroll/imgs/wheel_over.png
  55. BIN
      iFrameGPX/leaflet/images/icons-000000@2x.png
  56. BIN
      iFrameGPX/leaflet/images/icons-ffffff@2x.png
  57. BIN
      iFrameGPX/leaflet/images/marker-icon-2x.png
  58. BIN
      iFrameGPX/leaflet/images/marker-icon.png
  59. BIN
      iFrameGPX/leaflet/images/marker-shadow.png
  60. 8949
      iFrameGPX/leaflet/leaflet-src.js
  61. 798
      iFrameGPX/leaflet/leaflet.css
  62. 9
      iFrameGPX/leaflet/leaflet.js
  63. 67
      imagesInCat.php

370
iFrameGPX/GPS/47909.gpx

@ -0,0 +1,370 @@
<?xml version="1.0" encoding="UTF-8" standalone="no" ?>
<gpx version="1.1" creator="Visorando" xmlns:xsi="http://www.w3.org/2001/XMLSchema-instance" xmlns="http://www.topografix.com/GPX/1/1" xsi:schemaLocation="http://www.topografix.com/GPX/1/1 http://www.topografix.com/GPX/1/1/gpx.xsd">
<metadata>
<name>Pic de la Humassade</name>
<link href="http://www.visorando.com/randonnee-/54862">
<text>http://www.visorando.com/randonnee-/54862</text>
</link>
</metadata>
<trk>
<name>Pic de la Humassade</name>
<trkseg>
<trkpt lat="42.958907" lon="0.556141">
<ele>744</ele>
<time>2015-01-27T12:13:13+01:00</time>
</trkpt>
<trkpt lat="42.959346" lon="0.556141">
<ele>753</ele>
<time>2015-01-27T12:13:18+01:00</time>
</trkpt>
<trkpt lat="42.959283" lon="0.555476">
<ele>753</ele>
<time>2015-01-27T12:13:23+01:00</time>
</trkpt>
<trkpt lat="42.959126" lon="0.554875">
<ele>749</ele>
<time>2015-01-27T12:13:28+01:00</time>
</trkpt>
<trkpt lat="42.959095" lon="0.553502">
<ele>741</ele>
<time>2015-01-27T12:13:33+01:00</time>
</trkpt>
<trkpt lat="42.959362" lon="0.552815">
<ele>742</ele>
<time>2015-01-27T12:13:38+01:00</time>
</trkpt>
<trkpt lat="42.959409" lon="0.552022">
<ele>739</ele>
<time>2015-01-27T12:13:43+01:00</time>
</trkpt>
<trkpt lat="42.959173" lon="0.551614">
<ele>732</ele>
<time>2015-01-27T12:13:48+01:00</time>
</trkpt>
<trkpt lat="42.959692" lon="0.550434">
<ele>726</ele>
<time>2015-01-27T12:13:53+01:00</time>
</trkpt>
<trkpt lat="42.959802" lon="0.549275">
<ele>720</ele>
<time>2015-01-27T12:13:58+01:00</time>
</trkpt>
<trkpt lat="42.960650" lon="0.547902">
<ele>731</ele>
<time>2015-01-27T12:14:03+01:00</time>
</trkpt>
<trkpt lat="42.961796" lon="0.546099">
<ele>747</ele>
<time>2015-01-27T12:14:08+01:00</time>
</trkpt>
<trkpt lat="42.962283" lon="0.545155">
<ele>760</ele>
<time>2015-01-27T12:14:13+01:00</time>
</trkpt>
<trkpt lat="42.962958" lon="0.544597">
<ele>772</ele>
<time>2015-01-27T12:14:18+01:00</time>
</trkpt>
<trkpt lat="42.963429" lon="0.544254">
<ele>783</ele>
<time>2015-01-27T12:14:23+01:00</time>
</trkpt>
<trkpt lat="42.964167" lon="0.544404">
<ele>786</ele>
<time>2015-01-27T12:14:28+01:00</time>
</trkpt>
<trkpt lat="42.964795" lon="0.543889">
<ele>799</ele>
<time>2015-01-27T12:14:33+01:00</time>
</trkpt>
<trkpt lat="42.965360" lon="0.543310">
<ele>815</ele>
<time>2015-01-27T12:14:38+01:00</time>
</trkpt>
<trkpt lat="42.965957" lon="0.542966">
<ele>826</ele>
<time>2015-01-27T12:14:43+01:00</time>
</trkpt>
<trkpt lat="42.966240" lon="0.542516">
<ele>838</ele>
<time>2015-01-27T12:14:48+01:00</time>
</trkpt>
<trkpt lat="42.966240" lon="0.541936">
<ele>859</ele>
<time>2015-01-27T12:14:53+01:00</time>
</trkpt>
<trkpt lat="42.966601" lon="0.541593">
<ele>878</ele>
<time>2015-01-27T12:14:58+01:00</time>
</trkpt>
<trkpt lat="42.967166" lon="0.541572">
<ele>878</ele>
<time>2015-01-27T12:15:03+01:00</time>
</trkpt>
<trkpt lat="42.967559" lon="0.542001">
<ele>857</ele>
<time>2015-01-27T12:15:08+01:00</time>
</trkpt>
<trkpt lat="42.968234" lon="0.541529">
<ele>877</ele>
<time>2015-01-27T12:15:13+01:00</time>
</trkpt>
<trkpt lat="42.969097" lon="0.539984">
<ele>931</ele>
<time>2015-01-27T12:15:18+01:00</time>
</trkpt>
<trkpt lat="42.969474" lon="0.539404">
<ele>946</ele>
<time>2015-01-27T12:15:23+01:00</time>
</trkpt>
<trkpt lat="42.969129" lon="0.538653">
<ele>986</ele>
<time>2015-01-27T12:15:28+01:00</time>
</trkpt>
<trkpt lat="42.969270" lon="0.537988">
<ele>1012</ele>
<time>2015-01-27T12:15:33+01:00</time>
</trkpt>
<trkpt lat="42.969772" lon="0.537130">
<ele>1030</ele>
<time>2015-01-27T12:15:38+01:00</time>
</trkpt>
<trkpt lat="42.970228" lon="0.536379">
<ele>1057</ele>
<time>2015-01-27T12:15:43+01:00</time>
</trkpt>
<trkpt lat="42.970824" lon="0.534834">
<ele>1109</ele>
<time>2015-01-27T12:15:48+01:00</time>
</trkpt>
<trkpt lat="42.971091" lon="0.534319">
<ele>1122</ele>
<time>2015-01-27T12:15:53+01:00</time>
</trkpt>
<trkpt lat="42.971515" lon="0.533761">
<ele>1141</ele>
<time>2015-01-27T12:15:58+01:00</time>
</trkpt>
<trkpt lat="42.972018" lon="0.532838">
<ele>1166</ele>
<time>2015-01-27T12:16:03+01:00</time>
</trkpt>
<trkpt lat="42.972332" lon="0.531422">
<ele>1212</ele>
<time>2015-01-27T12:16:08+01:00</time>
</trkpt>
<trkpt lat="42.972583" lon="0.530521">
<ele>1246</ele>
<time>2015-01-27T12:16:13+01:00</time>
</trkpt>
<trkpt lat="42.972975" lon="0.530221">
<ele>1254</ele>
<time>2015-01-27T12:16:18+01:00</time>
</trkpt>
<trkpt lat="42.973572" lon="0.530242">
<ele>1269</ele>
<time>2015-01-27T12:16:23+01:00</time>
</trkpt>
<trkpt lat="42.973917" lon="0.530006">
<ele>1286</ele>
<time>2015-01-27T12:16:28+01:00</time>
</trkpt>
<trkpt lat="42.973399" lon="0.529169">
<ele>1293</ele>
<time>2015-01-27T12:16:33+01:00</time>
</trkpt>
<trkpt lat="42.973148" lon="0.528461">
<ele>1306</ele>
<time>2015-01-27T12:16:38+01:00</time>
</trkpt>
<trkpt lat="42.973289" lon="0.527560">
<ele>1312</ele>
<time>2015-01-27T12:16:43+01:00</time>
</trkpt>
<trkpt lat="42.972253" lon="0.527131">
<ele>1334</ele>
<time>2015-01-27T12:16:48+01:00</time>
</trkpt>
<trkpt lat="42.971829" lon="0.527667">
<ele>1338</ele>
<time>2015-01-27T12:16:53+01:00</time>
</trkpt>
<trkpt lat="42.970856" lon="0.528461">
<ele>1335</ele>
<time>2015-01-27T12:16:58+01:00</time>
</trkpt>
<trkpt lat="42.969977" lon="0.529276">
<ele>1324</ele>
<time>2015-01-27T12:17:03+01:00</time>
</trkpt>
<trkpt lat="42.970856" lon="0.528461">
<ele>1335</ele>
<time>2015-01-27T12:17:08+01:00</time>
</trkpt>
<trkpt lat="42.971829" lon="0.527667">
<ele>1338</ele>
<time>2015-01-27T12:17:13+01:00</time>
</trkpt>
<trkpt lat="42.972253" lon="0.527131">
<ele>1334</ele>
<time>2015-01-27T12:17:18+01:00</time>
</trkpt>
<trkpt lat="42.973289" lon="0.527560">
<ele>1312</ele>
<time>2015-01-27T12:17:23+01:00</time>
</trkpt>
<trkpt lat="42.973148" lon="0.528461">
<ele>1306</ele>
<time>2015-01-27T12:17:28+01:00</time>
</trkpt>
<trkpt lat="42.972433" lon="0.528751">
<ele>1318</ele>
<time>2015-01-27T12:17:33+01:00</time>
</trkpt>
<trkpt lat="42.971876" lon="0.529459">
<ele>1312</ele>
<time>2015-01-27T12:17:38+01:00</time>
</trkpt>
<trkpt lat="42.971468" lon="0.529909">
<ele>1315</ele>
<time>2015-01-27T12:17:43+01:00</time>
</trkpt>
<trkpt lat="42.971138" lon="0.530704">
<ele>1298</ele>
<time>2015-01-27T12:17:48+01:00</time>
</trkpt>
<trkpt lat="42.970825" lon="0.531959">
<ele>1256</ele>
<time>2015-01-27T12:17:53+01:00</time>
</trkpt>
<trkpt lat="42.970605" lon="0.532688">
<ele>1230</ele>
<time>2015-01-27T12:17:58+01:00</time>
</trkpt>
<trkpt lat="42.970275" lon="0.533482">
<ele>1204</ele>
<time>2015-01-27T12:18:03+01:00</time>
</trkpt>
<trkpt lat="42.969709" lon="0.534641">
<ele>1172</ele>
<time>2015-01-27T12:18:08+01:00</time>
</trkpt>
<trkpt lat="42.969207" lon="0.535499">
<ele>1134</ele>
<time>2015-01-27T12:18:13+01:00</time>
</trkpt>
<trkpt lat="42.968925" lon="0.535928">
<ele>1123</ele>
<time>2015-01-27T12:18:18+01:00</time>
</trkpt>
<trkpt lat="42.968720" lon="0.536594">
<ele>1096</ele>
<time>2015-01-27T12:18:23+01:00</time>
</trkpt>
<trkpt lat="42.968642" lon="0.537645">
<ele>1049</ele>
<time>2015-01-27T12:18:28+01:00</time>
</trkpt>
<trkpt lat="42.968022" lon="0.539244">
<ele>997</ele>
<time>2015-01-27T12:18:33+01:00</time>
</trkpt>
<trkpt lat="42.967920" lon="0.539780">
<ele>971</ele>
<time>2015-01-27T12:18:38+01:00</time>
</trkpt>
<trkpt lat="42.967378" lon="0.539919">
<ele>966</ele>
<time>2015-01-27T12:18:43+01:00</time>
</trkpt>
<trkpt lat="42.966829" lon="0.540359">
<ele>944</ele>
<time>2015-01-27T12:18:48+01:00</time>
</trkpt>
<trkpt lat="42.966389" lon="0.540649">
<ele>933</ele>
<time>2015-01-27T12:18:53+01:00</time>
</trkpt>
<trkpt lat="42.965894" lon="0.540906">
<ele>920</ele>
<time>2015-01-27T12:18:58+01:00</time>
</trkpt>
<trkpt lat="42.965360" lon="0.541347">
<ele>901</ele>
<time>2015-01-27T12:19:03+01:00</time>
</trkpt>
<trkpt lat="42.964316" lon="0.542011">
<ele>860</ele>
<time>2015-01-27T12:19:08+01:00</time>
</trkpt>
<trkpt lat="42.963774" lon="0.542966">
<ele>824</ele>
<time>2015-01-27T12:19:13+01:00</time>
</trkpt>
<trkpt lat="42.963193" lon="0.543675">
<ele>797</ele>
<time>2015-01-27T12:19:18+01:00</time>
</trkpt>
<trkpt lat="42.962844" lon="0.544157">
<ele>783</ele>
<time>2015-01-27T12:19:23+01:00</time>
</trkpt>
<trkpt lat="42.962762" lon="0.544618">
<ele>772</ele>
<time>2015-01-27T12:19:28+01:00</time>
</trkpt>
<trkpt lat="42.962283" lon="0.545155">
<ele>760</ele>
<time>2015-01-27T12:19:33+01:00</time>
</trkpt>
<trkpt lat="42.961796" lon="0.546099">
<ele>747</ele>
<time>2015-01-27T12:19:38+01:00</time>
</trkpt>
<trkpt lat="42.960650" lon="0.547902">
<ele>731</ele>
<time>2015-01-27T12:19:43+01:00</time>
</trkpt>
<trkpt lat="42.959802" lon="0.549275">
<ele>720</ele>
<time>2015-01-27T12:19:48+01:00</time>
</trkpt>
<trkpt lat="42.959692" lon="0.550434">
<ele>726</ele>
<time>2015-01-27T12:19:53+01:00</time>
</trkpt>
<trkpt lat="42.959173" lon="0.551614">
<ele>732</ele>
<time>2015-01-27T12:19:58+01:00</time>
</trkpt>
<trkpt lat="42.959409" lon="0.552022">
<ele>739</ele>
<time>2015-01-27T12:20:03+01:00</time>
</trkpt>
<trkpt lat="42.959362" lon="0.552815">
<ele>742</ele>
<time>2015-01-27T12:20:08+01:00</time>
</trkpt>
<trkpt lat="42.959095" lon="0.553502">
<ele>741</ele>
<time>2015-01-27T12:20:13+01:00</time>
</trkpt>
<trkpt lat="42.959126" lon="0.554875">
<ele>749</ele>
<time>2015-01-27T12:20:18+01:00</time>
</trkpt>
<trkpt lat="42.959283" lon="0.555476">
<ele>753</ele>
<time>2015-01-27T12:20:23+01:00</time>
</trkpt>
<trkpt lat="42.959346" lon="0.556141">
<ele>753</ele>
<time>2015-01-27T12:20:28+01:00</time>
</trkpt>
<trkpt lat="42.958907" lon="0.556141">
<ele>744</ele>
<time>2015-01-27T12:20:33+01:00</time>
</trkpt>
</trkseg>
</trk>
</gpx>

490
iFrameGPX/GPS/47926.gpx

@ -0,0 +1,490 @@
<?xml version="1.0" encoding="UTF-8" standalone="no" ?>
<gpx version="1.1" creator="Visorando" xmlns:xsi="http://www.w3.org/2001/XMLSchema-instance" xmlns="http://www.topografix.com/GPX/1/1" xsi:schemaLocation="http://www.topografix.com/GPX/1/1 http://www.topografix.com/GPX/1/1/gpx.xsd">
<metadata>
<name>Montmajou</name>
<link href="http://www.visorando.com/randonnee-/54879">
<text>http://www.visorando.com/randonnee-/54879</text>
</link>
</metadata>
<trk>
<name>Montmajou</name>
<trkseg>
<trkpt lat="42.830070" lon="0.619270">
<ele>1200</ele>
<time>2015-01-27T12:11:13+01:00</time>
</trkpt>
<trkpt lat="42.830526" lon="0.619720">
<ele>1219</ele>
<time>2015-01-27T12:11:18+01:00</time>
</trkpt>
<trkpt lat="42.831848" lon="0.619785">
<ele>1215</ele>
<time>2015-01-27T12:11:23+01:00</time>
</trkpt>
<trkpt lat="42.832368" lon="0.619978">
<ele>1219</ele>
<time>2015-01-27T12:11:28+01:00</time>
</trkpt>
<trkpt lat="42.832541" lon="0.619678">
<ele>1214</ele>
<time>2015-01-27T12:11:33+01:00</time>
</trkpt>
<trkpt lat="42.832761" lon="0.619248">
<ele>1206</ele>
<time>2015-01-27T12:11:38+01:00</time>
</trkpt>
<trkpt lat="42.833312" lon="0.619184">
<ele>1206</ele>
<time>2015-01-27T12:11:43+01:00</time>
</trkpt>
<trkpt lat="42.834287" lon="0.621158">
<ele>1240</ele>
<time>2015-01-27T12:11:48+01:00</time>
</trkpt>
<trkpt lat="42.834161" lon="0.621501">
<ele>1249</ele>
<time>2015-01-27T12:11:53+01:00</time>
</trkpt>
<trkpt lat="42.834020" lon="0.621759">
<ele>1256</ele>
<time>2015-01-27T12:11:58+01:00</time>
</trkpt>
<trkpt lat="42.833894" lon="0.622896">
<ele>1280</ele>
<time>2015-01-27T12:12:03+01:00</time>
</trkpt>
<trkpt lat="42.834224" lon="0.623390">
<ele>1283</ele>
<time>2015-01-27T12:12:08+01:00</time>
</trkpt>
<trkpt lat="42.834382" lon="0.623991">
<ele>1291</ele>
<time>2015-01-27T12:12:13+01:00</time>
</trkpt>
<trkpt lat="42.834964" lon="0.623604">
<ele>1284</ele>
<time>2015-01-27T12:12:18+01:00</time>
</trkpt>
<trkpt lat="42.835892" lon="0.623926">
<ele>1293</ele>
<time>2015-01-27T12:12:23+01:00</time>
</trkpt>
<trkpt lat="42.836868" lon="0.625257">
<ele>1313</ele>
<time>2015-01-27T12:12:28+01:00</time>
</trkpt>
<trkpt lat="42.836852" lon="0.625621">
<ele>1319</ele>
<time>2015-01-27T12:12:33+01:00</time>
</trkpt>
<trkpt lat="42.836380" lon="0.625149">
<ele>1315</ele>
<time>2015-01-27T12:12:38+01:00</time>
</trkpt>
<trkpt lat="42.835861" lon="0.625342">
<ele>1317</ele>
<time>2015-01-27T12:12:43+01:00</time>
</trkpt>
<trkpt lat="42.835420" lon="0.626115">
<ele>1325</ele>
<time>2015-01-27T12:12:48+01:00</time>
</trkpt>
<trkpt lat="42.835483" lon="0.626930">
<ele>1338</ele>
<time>2015-01-27T12:12:53+01:00</time>
</trkpt>
<trkpt lat="42.835515" lon="0.627789">
<ele>1352</ele>
<time>2015-01-27T12:12:58+01:00</time>
</trkpt>
<trkpt lat="42.836050" lon="0.628711">
<ele>1367</ele>
<time>2015-01-27T12:13:03+01:00</time>
</trkpt>
<trkpt lat="42.835987" lon="0.629205">
<ele>1374</ele>
<time>2015-01-27T12:13:08+01:00</time>
</trkpt>
<trkpt lat="42.835641" lon="0.629548">
<ele>1383</ele>
<time>2015-01-27T12:13:13+01:00</time>
</trkpt>
<trkpt lat="42.835216" lon="0.630535">
<ele>1407</ele>
<time>2015-01-27T12:13:18+01:00</time>
</trkpt>
<trkpt lat="42.834571" lon="0.630836">
<ele>1418</ele>
<time>2015-01-27T12:13:23+01:00</time>
</trkpt>
<trkpt lat="42.834744" lon="0.631694">
<ele>1436</ele>
<time>2015-01-27T12:13:28+01:00</time>
</trkpt>
<trkpt lat="42.834460" lon="0.631887">
<ele>1449</ele>
<time>2015-01-27T12:13:33+01:00</time>
</trkpt>
<trkpt lat="42.833076" lon="0.631458">
<ele>1467</ele>
<time>2015-01-27T12:13:38+01:00</time>
</trkpt>
<trkpt lat="42.832430" lon="0.631758">
<ele>1498</ele>
<time>2015-01-27T12:13:43+01:00</time>
</trkpt>
<trkpt lat="42.832069" lon="0.631587">
<ele>1509</ele>
<time>2015-01-27T12:13:48+01:00</time>
</trkpt>
<trkpt lat="42.830479" lon="0.629140">
<ele>1523</ele>
<time>2015-01-27T12:13:53+01:00</time>
</trkpt>
<trkpt lat="42.829976" lon="0.628153">
<ele>1515</ele>
<time>2015-01-27T12:13:58+01:00</time>
</trkpt>
<trkpt lat="42.829330" lon="0.627853">
<ele>1515</ele>
<time>2015-01-27T12:14:03+01:00</time>
</trkpt>
<trkpt lat="42.828764" lon="0.627896">
<ele>1516</ele>
<time>2015-01-27T12:14:08+01:00</time>
</trkpt>
<trkpt lat="42.829393" lon="0.628625">
<ele>1536</ele>
<time>2015-01-27T12:14:13+01:00</time>
</trkpt>
<trkpt lat="42.829661" lon="0.629827">
<ele>1564</ele>
<time>2015-01-27T12:14:18+01:00</time>
</trkpt>
<trkpt lat="42.829834" lon="0.631029">
<ele>1586</ele>
<time>2015-01-27T12:14:23+01:00</time>
</trkpt>
<trkpt lat="42.829031" lon="0.630406">
<ele>1589</ele>
<time>2015-01-27T12:14:28+01:00</time>
</trkpt>
<trkpt lat="42.828024" lon="0.630256">
<ele>1589</ele>
<time>2015-01-27T12:14:33+01:00</time>
</trkpt>
<trkpt lat="42.827080" lon="0.631114">
<ele>1606</ele>
<time>2015-01-27T12:14:38+01:00</time>
</trkpt>
<trkpt lat="42.826152" lon="0.632144">
<ele>1631</ele>
<time>2015-01-27T12:14:43+01:00</time>
</trkpt>
<trkpt lat="42.825727" lon="0.633325">
<ele>1652</ele>
<time>2015-01-27T12:14:48+01:00</time>
</trkpt>
<trkpt lat="42.825648" lon="0.633604">
<ele>1655</ele>
<time>2015-01-27T12:14:53+01:00</time>
</trkpt>
<trkpt lat="42.826765" lon="0.634505">
<ele>1691</ele>
<time>2015-01-27T12:14:58+01:00</time>
</trkpt>
<trkpt lat="42.827820" lon="0.636157">
<ele>1731</ele>
<time>2015-01-27T12:15:03+01:00</time>
</trkpt>
<trkpt lat="42.829094" lon="0.639526">
<ele>1798</ele>
<time>2015-01-27T12:15:08+01:00</time>
</trkpt>
<trkpt lat="42.829818" lon="0.642573">
<ele>1855</ele>
<time>2015-01-27T12:15:13+01:00</time>
</trkpt>
<trkpt lat="42.829865" lon="0.643882">
<ele>1878</ele>
<time>2015-01-27T12:15:18+01:00</time>
</trkpt>
<trkpt lat="42.830637" lon="0.647744">
<ele>1916</ele>
<time>2015-01-27T12:15:23+01:00</time>
</trkpt>
<trkpt lat="42.831266" lon="0.649933">
<ele>1918</ele>
<time>2015-01-27T12:15:28+01:00</time>
</trkpt>
<trkpt lat="42.831235" lon="0.651928">
<ele>1923</ele>
<time>2015-01-27T12:15:33+01:00</time>
</trkpt>
<trkpt lat="42.831140" lon="0.653860">
<ele>1938</ele>
<time>2015-01-27T12:15:38+01:00</time>
</trkpt>
<trkpt lat="42.831360" lon="0.654847">
<ele>1939</ele>
<time>2015-01-27T12:15:43+01:00</time>
</trkpt>
<trkpt lat="42.831738" lon="0.655490">
<ele>1947</ele>
<time>2015-01-27T12:15:48+01:00</time>
</trkpt>
<trkpt lat="42.831895" lon="0.656950">
<ele>1987</ele>
<time>2015-01-27T12:15:53+01:00</time>
</trkpt>
<trkpt lat="42.831880" lon="0.659052">
<ele>2050</ele>
<time>2015-01-27T12:15:58+01:00</time>
</trkpt>
<trkpt lat="42.831738" lon="0.660469">
<ele>2063</ele>
<time>2015-01-27T12:16:03+01:00</time>
</trkpt>
<trkpt lat="42.832021" lon="0.661048">
<ele>2070</ele>
<time>2015-01-27T12:16:08+01:00</time>
</trkpt>
<trkpt lat="42.831738" lon="0.660469">
<ele>2063</ele>
<time>2015-01-27T12:16:13+01:00</time>
</trkpt>
<trkpt lat="42.831880" lon="0.659052">
<ele>2050</ele>
<time>2015-01-27T12:16:18+01:00</time>
</trkpt>
<trkpt lat="42.831895" lon="0.656950">
<ele>1987</ele>
<time>2015-01-27T12:16:23+01:00</time>
</trkpt>
<trkpt lat="42.831738" lon="0.655490">
<ele>1947</ele>
<time>2015-01-27T12:16:28+01:00</time>
</trkpt>
<trkpt lat="42.831360" lon="0.654847">
<ele>1939</ele>
<time>2015-01-27T12:16:33+01:00</time>
</trkpt>
<trkpt lat="42.831140" lon="0.653860">
<ele>1938</ele>
<time>2015-01-27T12:16:38+01:00</time>
</trkpt>
<trkpt lat="42.831235" lon="0.651928">
<ele>1923</ele>
<time>2015-01-27T12:16:43+01:00</time>
</trkpt>
<trkpt lat="42.831266" lon="0.649933">
<ele>1918</ele>
<time>2015-01-27T12:16:48+01:00</time>
</trkpt>
<trkpt lat="42.830637" lon="0.647744">
<ele>1916</ele>
<time>2015-01-27T12:16:53+01:00</time>
</trkpt>
<trkpt lat="42.829865" lon="0.643882">
<ele>1878</ele>
<time>2015-01-27T12:16:58+01:00</time>
</trkpt>
<trkpt lat="42.829818" lon="0.642573">
<ele>1855</ele>
<time>2015-01-27T12:17:03+01:00</time>
</trkpt>
<trkpt lat="42.829094" lon="0.639526">
<ele>1798</ele>
<time>2015-01-27T12:17:08+01:00</time>
</trkpt>
<trkpt lat="42.827820" lon="0.636157">
<ele>1731</ele>
<time>2015-01-27T12:17:13+01:00</time>
</trkpt>
<trkpt lat="42.826765" lon="0.634505">
<ele>1691</ele>
<time>2015-01-27T12:17:18+01:00</time>
</trkpt>
<trkpt lat="42.825648" lon="0.633604">
<ele>1655</ele>
<time>2015-01-27T12:17:23+01:00</time>
</trkpt>
<trkpt lat="42.825727" lon="0.633325">
<ele>1652</ele>
<time>2015-01-27T12:17:28+01:00</time>
</trkpt>
<trkpt lat="42.826152" lon="0.632144">
<ele>1631</ele>
<time>2015-01-27T12:17:33+01:00</time>
</trkpt>
<trkpt lat="42.827080" lon="0.631114">
<ele>1606</ele>
<time>2015-01-27T12:17:38+01:00</time>
</trkpt>
<trkpt lat="42.828024" lon="0.630256">
<ele>1589</ele>
<time>2015-01-27T12:17:43+01:00</time>
</trkpt>
<trkpt lat="42.829031" lon="0.630406">
<ele>1589</ele>
<time>2015-01-27T12:17:48+01:00</time>
</trkpt>
<trkpt lat="42.829834" lon="0.631029">
<ele>1586</ele>
<time>2015-01-27T12:17:53+01:00</time>
</trkpt>
<trkpt lat="42.829661" lon="0.629827">
<ele>1564</ele>
<time>2015-01-27T12:17:58+01:00</time>
</trkpt>
<trkpt lat="42.829393" lon="0.628625">
<ele>1536</ele>
<time>2015-01-27T12:18:03+01:00</time>
</trkpt>
<trkpt lat="42.828764" lon="0.627896">
<ele>1516</ele>
<time>2015-01-27T12:18:08+01:00</time>
</trkpt>
<trkpt lat="42.829330" lon="0.627853">
<ele>1515</ele>
<time>2015-01-27T12:18:13+01:00</time>
</trkpt>
<trkpt lat="42.829976" lon="0.628153">
<ele>1515</ele>
<time>2015-01-27T12:18:18+01:00</time>
</trkpt>
<trkpt lat="42.830479" lon="0.629140">
<ele>1523</ele>
<time>2015-01-27T12:18:23+01:00</time>
</trkpt>
<trkpt lat="42.832069" lon="0.631587">
<ele>1509</ele>
<time>2015-01-27T12:18:28+01:00</time>
</trkpt>
<trkpt lat="42.832430" lon="0.631758">
<ele>1498</ele>
<time>2015-01-27T12:18:33+01:00</time>
</trkpt>
<trkpt lat="42.833076" lon="0.631458">
<ele>1467</ele>
<time>2015-01-27T12:18:38+01:00</time>
</trkpt>
<trkpt lat="42.834460" lon="0.631887">
<ele>1449</ele>
<time>2015-01-27T12:18:43+01:00</time>
</trkpt>
<trkpt lat="42.834744" lon="0.631694">
<ele>1436</ele>
<time>2015-01-27T12:18:48+01:00</time>
</trkpt>
<trkpt lat="42.834571" lon="0.630836">
<ele>1418</ele>
<time>2015-01-27T12:18:53+01:00</time>
</trkpt>
<trkpt lat="42.835216" lon="0.630535">
<ele>1407</ele>
<time>2015-01-27T12:18:58+01:00</time>
</trkpt>
<trkpt lat="42.835641" lon="0.629548">
<ele>1383</ele>
<time>2015-01-27T12:19:03+01:00</time>
</trkpt>
<trkpt lat="42.835987" lon="0.629205">
<ele>1374</ele>
<time>2015-01-27T12:19:08+01:00</time>
</trkpt>
<trkpt lat="42.836050" lon="0.628711">
<ele>1367</ele>
<time>2015-01-27T12:19:13+01:00</time>
</trkpt>
<trkpt lat="42.835515" lon="0.627789">
<ele>1352</ele>
<time>2015-01-27T12:19:18+01:00</time>
</trkpt>
<trkpt lat="42.835483" lon="0.626930">
<ele>1338</ele>
<time>2015-01-27T12:19:23+01:00</time>
</trkpt>
<trkpt lat="42.835420" lon="0.626115">
<ele>1325</ele>
<time>2015-01-27T12:19:28+01:00</time>
</trkpt>
<trkpt lat="42.835861" lon="0.625342">
<ele>1317</ele>
<time>2015-01-27T12:19:33+01:00</time>
</trkpt>
<trkpt lat="42.836380" lon="0.625149">
<ele>1315</ele>
<time>2015-01-27T12:19:38+01:00</time>
</trkpt>
<trkpt lat="42.836852" lon="0.625621">
<ele>1319</ele>
<time>2015-01-27T12:19:43+01:00</time>
</trkpt>
<trkpt lat="42.836868" lon="0.625257">
<ele>1313</ele>
<time>2015-01-27T12:19:48+01:00</time>
</trkpt>
<trkpt lat="42.835892" lon="0.623926">
<ele>1293</ele>
<time>2015-01-27T12:19:53+01:00</time>
</trkpt>
<trkpt lat="42.834964" lon="0.623604">
<ele>1284</ele>
<time>2015-01-27T12:19:58+01:00</time>
</trkpt>
<trkpt lat="42.834382" lon="0.623991">
<ele>1291</ele>
<time>2015-01-27T12:20:03+01:00</time>
</trkpt>
<trkpt lat="42.834224" lon="0.623390">
<ele>1283</ele>
<time>2015-01-27T12:20:08+01:00</time>
</trkpt>
<trkpt lat="42.833894" lon="0.622896">
<ele>1280</ele>
<time>2015-01-27T12:20:13+01:00</time>
</trkpt>
<trkpt lat="42.834020" lon="0.621759">
<ele>1256</ele>
<time>2015-01-27T12:20:18+01:00</time>
</trkpt>
<trkpt lat="42.834161" lon="0.621501">
<ele>1249</ele>
<time>2015-01-27T12:20:23+01:00</time>
</trkpt>
<trkpt lat="42.834287" lon="0.621158">
<ele>1240</ele>
<time>2015-01-27T12:20:28+01:00</time>
</trkpt>
<trkpt lat="42.833312" lon="0.619184">
<ele>1206</ele>
<time>2015-01-27T12:20:33+01:00</time>
</trkpt>
<trkpt lat="42.832761" lon="0.619248">
<ele>1206</ele>
<time>2015-01-27T12:20:38+01:00</time>
</trkpt>
<trkpt lat="42.832541" lon="0.619678">
<ele>1214</ele>
<time>2015-01-27T12:20:43+01:00</time>
</trkpt>
<trkpt lat="42.832368" lon="0.619978">
<ele>1219</ele>
<time>2015-01-27T12:20:48+01:00</time>
</trkpt>
<trkpt lat="42.831848" lon="0.619785">
<ele>1215</ele>
<time>2015-01-27T12:20:53+01:00</time>
</trkpt>
<trkpt lat="42.830526" lon="0.619720">
<ele>1219</ele>
<time>2015-01-27T12:20:58+01:00</time>
</trkpt>
<trkpt lat="42.830070" lon="0.619270">
<ele>1200</ele>
<time>2015-01-27T12:21:03+01:00</time>
</trkpt>
</trkseg>
</trk>
</gpx>

280
iFrameGPX/GPS/HrpJ1.gpx

@ -0,0 +1,280 @@
<?xml version="1.0" encoding="UTF-8"?>
<gpx xmlns="http://www.topografix.com/GPX/1/1" xmlns:gpsies="http://www.gpsies.com/GPX/1/0" creator="GPSies http://www.gpsies.com - HRP J1" version="1.1" xmlns:xsi="http://www.w3.org/2001/XMLSchema-instance" xsi:schemaLocation="http://www.topografix.com/GPX/1/1 http://www.topografix.com/GPX/1/1/gpx.xsd http://www.gpsies.com/GPX/1/0 http://www.gpsies.com/gpsies.xsd">
<metadata>
<name>HRP J1</name>
<author>
<name>leosw</name>
<link href="http://www.gpsies.com/mapUser.do?username=leosw">
<text>leosw on GPSies.com</text>
<type>GPSiesUserOnWeb</type>
</link>
</author>
<link href="http://www.gpsies.com/map.do?fileId=ykhoxtarfnbgbjmq">
<text>HRP J1 on GPSies.com</text>
<type>trackOnWeb</type>
</link>
<time>2015-01-27T10:41:35Z</time>
<extensions>
<gpsies:property>one-way trip</gpsies:property>
<gpsies:trackLengthMeter>11092.257796309268</gpsies:trackLengthMeter>
<gpsies:totalAscentMeter>614.0</gpsies:totalAscentMeter>
<gpsies:totalDescentMeter>304.0</gpsies:totalDescentMeter>
<gpsies:minHeightMeter>2.0</gpsies:minHeightMeter>
<gpsies:maxHeightMeter>481.0</gpsies:maxHeightMeter>
</extensions>
</metadata>
<trk>
<name>HRP J1 on GPSies.com</name>
<link href="http://www.gpsies.com/map.do?fileId=ykhoxtarfnbgbjmq">
<type>trackOnWeb</type>
</link>
<link href="http://www.gpsies.com/charts/yk/map/ykhoxtarfnbgbjmq_map.png">
<type>elevationChartUrlMap</type>
</link>
<link href="http://www.gpsies.com/charts/yk/mapThumb/ykhoxtarfnbgbjmq_mapThumb.png">
<type>elevationChartUrlMapThumb</type>
</link>
<link href="http://www.gpsies.com/charts/yk/tab/ykhoxtarfnbgbjmq_tab.png">
<type>elevationChartUrlTab</type>
</link>
<trkseg>
<trkpt lat="43.37328370" lon="-1.77403450">
<ele>7.0000000</ele>
<time>2010-01-01T00:00:00Z</time>
</trkpt>
<trkpt lat="43.37159920" lon="-1.77313327">
<ele>8.0000000</ele>
<time>2010-01-01T00:01:12Z</time>
</trkpt>
<trkpt lat="43.37021090" lon="-1.77366971">
<ele>5.0000000</ele>
<time>2010-01-01T00:02:10Z</time>
</trkpt>
<trkpt lat="43.36908780" lon="-1.77238225">
<ele>2.0000000</ele>
<time>2010-01-01T00:03:08Z</time>
</trkpt>
<trkpt lat="43.36523490" lon="-1.76978588">
<ele>5.0000000</ele>
<time>2010-01-01T00:06:00Z</time>
</trkpt>
<trkpt lat="43.36400250" lon="-1.77070856">
<ele>12.000000</ele>
<time>2010-01-01T00:06:56Z</time>
</trkpt>
<trkpt lat="43.36191210" lon="-1.77201747">
<ele>15.000000</ele>
<time>2010-01-01T00:08:28Z</time>
</trkpt>
<trkpt lat="43.35902590" lon="-1.77167415">
<ele>9.0000000</ele>
<time>2010-01-01T00:10:24Z</time>
</trkpt>
<trkpt lat="43.35838630" lon="-1.76804780">
<ele>25.000000</ele>
<time>2010-01-01T00:12:13Z</time>
</trkpt>
<trkpt lat="43.35866710" lon="-1.76538705">
<ele>41.000000</ele>
<time>2010-01-01T00:13:31Z</time>
</trkpt>
<trkpt lat="43.35935360" lon="-1.76302671">
<ele>55.000000</ele>
<time>2010-01-01T00:14:45Z</time>
</trkpt>
<trkpt lat="43.35958760" lon="-1.75978660">
<ele>74.000000</ele>
<time>2010-01-01T00:16:20Z</time>
</trkpt>
<trkpt lat="43.35685730" lon="-1.75875663">
<ele>103.00000</ele>
<time>2010-01-01T00:18:13Z</time>
</trkpt>
<trkpt lat="43.35623330" lon="-1.75901412">
<ele>105.00000</ele>
<time>2010-01-01T00:18:39Z</time>
</trkpt>
<trkpt lat="43.35582760" lon="-1.75704002">
<ele>105.00000</ele>
<time>2010-01-01T00:19:39Z</time>
</trkpt>
<trkpt lat="43.35542200" lon="-1.75416469">
<ele>95.000000</ele>
<time>2010-01-01T00:21:04Z</time>
</trkpt>
<trkpt lat="43.35395540" lon="-1.75257682">
<ele>97.000000</ele>
<time>2010-01-01T00:22:19Z</time>
</trkpt>
<trkpt lat="43.35292560" lon="-1.75244808">
<ele>107.00000</ele>
<time>2010-01-01T00:23:00Z</time>
</trkpt>
<trkpt lat="43.35189580" lon="-1.75111770">
<ele>120.00000</ele>
<time>2010-01-01T00:23:57Z</time>
</trkpt>
<trkpt lat="43.35111560" lon="-1.75013065">
<ele>115.00000</ele>
<time>2010-01-01T00:24:39Z</time>
</trkpt>
<trkpt lat="43.35061630" lon="-1.74704074">
<ele>93.000000</ele>
<time>2010-01-01T00:26:11Z</time>
</trkpt>
<trkpt lat="43.34977380" lon="-1.74536705">
<ele>88.000000</ele>
<time>2010-01-01T00:27:10Z</time>
</trkpt>
<trkpt lat="43.34974260" lon="-1.74437999">
<ele>90.000000</ele>
<time>2010-01-01T00:27:39Z</time>
</trkpt>
<trkpt lat="43.34899360" lon="-1.74330711">
<ele>89.000000</ele>
<time>2010-01-01T00:28:22Z</time>
</trkpt>
<trkpt lat="43.34811980" lon="-1.74249172">
<ele>87.000000</ele>
<time>2010-01-01T00:29:05Z</time>
</trkpt>
<trkpt lat="43.34765160" lon="-1.74407958">
<ele>77.000000</ele>
<time>2010-01-01T00:29:55Z</time>
</trkpt>
<trkpt lat="43.34690260" lon="-1.74480915">
<ele>60.000000</ele>
<time>2010-01-01T00:30:31Z</time>
</trkpt>
<trkpt lat="43.34609120" lon="-1.74429416">
<ele>50.000000</ele>
<time>2010-01-01T00:31:07Z</time>
</trkpt>
<trkpt lat="43.34584150" lon="-1.74214839">
<ele>49.000000</ele>
<time>2010-01-01T00:32:10Z</time>
</trkpt>
<trkpt lat="43.34646570" lon="-1.74124717">
<ele>64.000000</ele>
<time>2010-01-01T00:32:47Z</time>
</trkpt>
<trkpt lat="43.34559190" lon="-1.73970222">
<ele>65.000000</ele>
<time>2010-01-01T00:33:44Z</time>
</trkpt>
<trkpt lat="43.34371930" lon="-1.74060344">
<ele>46.000000</ele>
<time>2010-01-01T00:35:03Z</time>
</trkpt>
<trkpt lat="43.34281420" lon="-1.74167633">
<ele>34.000000</ele>
<time>2010-01-01T00:35:51Z</time>
</trkpt>
<trkpt lat="43.34253330" lon="-1.73978805">
<ele>24.000000</ele>
<time>2010-01-01T00:36:47Z</time>
</trkpt>
<trkpt lat="43.34069180" lon="-1.74060344">
<ele>46.000000</ele>
<time>2010-01-01T00:38:04Z</time>
</trkpt>
<trkpt lat="43.34053580" lon="-1.74146175">
<ele>45.000000</ele>
<time>2010-01-01T00:38:30Z</time>
</trkpt>
<trkpt lat="43.33919360" lon="-1.74103260">
<ele>65.000000</ele>
<time>2010-01-01T00:39:25Z</time>
</trkpt>
<trkpt lat="43.33778910" lon="-1.74154758">
<ele>58.000000</ele>
<time>2010-01-01T00:40:23Z</time>
</trkpt>
<trkpt lat="43.33625960" lon="-1.74107551">
<ele>58.000000</ele>
<time>2010-01-01T00:41:26Z</time>
</trkpt>
<trkpt lat="43.33476130" lon="-1.74141883">
<ele>62.000000</ele>
<time>2010-01-01T00:42:27Z</time>
</trkpt>
<trkpt lat="43.33282600" lon="-1.74004554">
<ele>66.000000</ele>
<time>2010-01-01T00:43:54Z</time>
</trkpt>
<trkpt lat="43.33248260" lon="-1.73717021">
<ele>101.00000</ele>
<time>2010-01-01T00:45:19Z</time>
</trkpt>
<trkpt lat="43.33148370" lon="-1.73446655">
<ele>137.00000</ele>
<time>2010-01-01T00:46:47Z</time>
</trkpt>
<trkpt lat="43.33157730" lon="-1.73313617">
<ele>162.00000</ele>
<time>2010-01-01T00:47:26Z</time>
</trkpt>
<trkpt lat="43.33320060" lon="-1.73249244">
<ele>161.00000</ele>
<time>2010-01-01T00:48:34Z</time>
</trkpt>
<trkpt lat="43.33110910" lon="-1.73047542">
<ele>226.00000</ele>
<time>2010-01-01T00:50:16Z</time>
</trkpt>
<trkpt lat="43.33170220" lon="-1.72875881">
<ele>283.00000</ele>
<time>2010-01-01T00:51:12Z</time>
</trkpt>
<trkpt lat="43.33260750" lon="-1.72897338">
<ele>267.00000</ele>
<time>2010-01-01T00:51:48Z</time>
</trkpt>
<trkpt lat="43.33248260" lon="-1.72751426">
<ele>294.00000</ele>
<time>2010-01-01T00:52:31Z</time>
</trkpt>
<trkpt lat="43.33151490" lon="-1.72523975">
<ele>329.00000</ele>
<time>2010-01-01T00:53:48Z</time>
</trkpt>
<trkpt lat="43.33114030" lon="-1.72639846">
<ele>343.00000</ele>
<time>2010-01-01T00:54:25Z</time>
</trkpt>
<trkpt lat="43.32939210" lon="-1.72412395">
<ele>400.00000</ele>
<time>2010-01-01T00:56:01Z</time>
</trkpt>
<trkpt lat="43.32783120" lon="-1.72262191">
<ele>440.00000</ele>
<time>2010-01-01T00:57:17Z</time>
</trkpt>
<trkpt lat="43.32561470" lon="-1.72146320">
<ele>481.00000</ele>
<time>2010-01-01T00:58:52Z</time>
</trkpt>
<trkpt lat="43.32374150" lon="-1.72047615">
<ele>451.00000</ele>
<time>2010-01-01T01:00:13Z</time>
</trkpt>
<trkpt lat="43.32227410" lon="-1.72270774">
<ele>403.00000</ele>
<time>2010-01-01T01:01:40Z</time>
</trkpt>
<trkpt lat="43.32061940" lon="-1.72197818">
<ele>370.00000</ele>
<time>2010-01-01T01:02:50Z</time>
</trkpt>
<trkpt lat="43.31940170" lon="-1.71867370">
<ele>346.00000</ele>
<time>2010-01-01T01:04:38Z</time>
</trkpt>
<trkpt lat="43.31702870" lon="-1.71644210">
<ele>317.00000</ele>
<time>2010-01-01T01:06:33Z</time>
</trkpt>
</trkseg>
</trk>
</gpx>

480
iFrameGPX/GPS/HrpJ2.gpx

@ -0,0 +1,480 @@
<?xml version="1.0" encoding="UTF-8"?>
<gpx xmlns="http://www.topografix.com/GPX/1/1" xmlns:gpsies="http://www.gpsies.com/GPX/1/0" creator="GPSies http://www.gpsies.com - HRP J2" version="1.1" xmlns:xsi="http://www.w3.org/2001/XMLSchema-instance" xsi:schemaLocation="http://www.topografix.com/GPX/1/1 http://www.topografix.com/GPX/1/1/gpx.xsd http://www.gpsies.com/GPX/1/0 http://www.gpsies.com/gpsies.xsd">
<metadata>
<name>HRP J2</name>
<author>
<name>leosw</name>
<link href="http://www.gpsies.com/mapUser.do?username=leosw">
<text>leosw on GPSies.com</text>
<type>GPSiesUserOnWeb</type>
</link>
</author>
<link href="http://www.gpsies.com/map.do?fileId=qqgfyhwmoohkrnrc">
<text>HRP J2 on GPSies.com</text>
<type>trackOnWeb</type>
</link>
<time>2015-01-26T17:04:13Z</time>
<extensions>
<gpsies:property>one-way trip</gpsies:property>
<gpsies:trackLengthMeter>18559.23016016643</gpsies:trackLengthMeter>
<gpsies:totalAscentMeter>808.0</gpsies:totalAscentMeter>
<gpsies:totalDescentMeter>736.0</gpsies:totalDescentMeter>
<gpsies:minHeightMeter>221.0</gpsies:minHeightMeter>
<gpsies:maxHeightMeter>523.0</gpsies:maxHeightMeter>
</extensions>
</metadata>
<trk>
<name>HRP J2 on GPSies.com</name>
<link href="http://www.gpsies.com/map.do?fileId=qqgfyhwmoohkrnrc">
<type>trackOnWeb</type>
</link>
<link href="http://www.gpsies.com/charts/qq/map/qqgfyhwmoohkrnrc_map.png">
<type>elevationChartUrlMap</type>
</link>
<link href="http://www.gpsies.com/charts/qq/mapThumb/qqgfyhwmoohkrnrc_mapThumb.png">
<type>elevationChartUrlMapThumb</type>
</link>
<link href="http://www.gpsies.com/charts/qq/tab/qqgfyhwmoohkrnrc_tab.png">
<type>elevationChartUrlTab</type>
</link>
<trkseg>
<trkpt lat="43.31712240" lon="-1.71661376">
<ele>317.00000</ele>
<time>2010-01-01T00:00:00Z</time>
</trkpt>
<trkpt lat="43.31590470" lon="-1.71485424">
<ele>349.00000</ele>
<time>2010-01-01T00:01:10Z</time>
</trkpt>
<trkpt lat="43.31371890" lon="-1.71373844">
<ele>387.00000</ele>
<time>2010-01-01T00:02:44Z</time>
</trkpt>
<trkpt lat="43.31209520" lon="-1.71335220">
<ele>406.00000</ele>
<time>2010-01-01T00:03:50Z</time>
</trkpt>
<trkpt lat="43.31103350" lon="-1.71253681">
<ele>410.00000</ele>
<time>2010-01-01T00:04:38Z</time>
</trkpt>
<trkpt lat="43.30978440" lon="-1.70695781">
<ele>500.00000</ele>
<time>2010-01-01T00:07:28Z</time>
</trkpt>
<trkpt lat="43.31037770" lon="-1.70730113">
<ele>486.00000</ele>
<time>2010-01-01T00:07:54Z</time>
</trkpt>
<trkpt lat="43.30990930" lon="-1.70614242">
<ele>507.00000</ele>
<time>2010-01-01T00:08:33Z</time>
</trkpt>
<trkpt lat="43.31000300" lon="-1.70494079">
<ele>520.00000</ele>
<time>2010-01-01T00:09:08Z</time>
</trkpt>
<trkpt lat="43.31040890" lon="-1.70288085">
<ele>512.00000</ele>
<time>2010-01-01T00:10:10Z</time>
</trkpt>
<trkpt lat="43.31015910" lon="-1.70193672">
<ele>523.00000</ele>
<time>2010-01-01T00:10:39Z</time>
</trkpt>
<trkpt lat="43.31168920" lon="-1.70064926">
<ele>498.00000</ele>
<time>2010-01-01T00:11:51Z</time>
</trkpt>
<trkpt lat="43.31187660" lon="-1.69768810">
<ele>493.00000</ele>
<time>2010-01-01T00:13:18Z</time>
</trkpt>
<trkpt lat="43.31281340" lon="-1.69682979">
<ele>469.00000</ele>
<time>2010-01-01T00:14:03Z</time>
</trkpt>
<trkpt lat="43.31287580" lon="-1.69472694">
<ele>437.00000</ele>
<time>2010-01-01T00:15:04Z</time>
</trkpt>
<trkpt lat="43.31193900" lon="-1.69322490">
<ele>407.00000</ele>
<time>2010-01-01T00:16:02Z</time>
</trkpt>
<trkpt lat="43.31156430" lon="-1.69275283">
<ele>395.00000</ele>
<time>2010-01-01T00:16:22Z</time>
</trkpt>
<trkpt lat="43.31137700" lon="-1.69120788">
<ele>366.00000</ele>
<time>2010-01-01T00:17:08Z</time>
</trkpt>
<trkpt lat="43.31147060" lon="-1.68992042">
<ele>354.00000</ele>
<time>2010-01-01T00:17:45Z</time>
</trkpt>
<trkpt lat="43.31056510" lon="-1.68846130">
<ele>341.00000</ele>
<time>2010-01-01T00:18:41Z</time>
</trkpt>
<trkpt lat="43.30965950" lon="-1.68665885">
<ele>325.00000</ele>
<time>2010-01-01T00:19:45Z</time>
</trkpt>
<trkpt lat="43.30944090" lon="-1.68528556">
<ele>314.00000</ele>
<time>2010-01-01T00:20:26Z</time>
</trkpt>
<trkpt lat="43.30978440" lon="-1.68425559">
<ele>318.00000</ele>
<time>2010-01-01T00:20:59Z</time>
</trkpt>
<trkpt lat="43.30912860" lon="-1.68442726">
<ele>312.00000</ele>
<time>2010-01-01T00:21:26Z</time>
</trkpt>
<trkpt lat="43.30919100" lon="-1.68296813">
<ele>323.00000</ele>
<time>2010-01-01T00:22:08Z</time>
</trkpt>
<trkpt lat="43.30844160" lon="-1.68253898">
<ele>319.00000</ele>
<time>2010-01-01T00:22:41Z</time>
</trkpt>
<trkpt lat="43.30809810" lon="-1.68168067">
<ele>338.00000</ele>
<time>2010-01-01T00:23:09Z</time>
</trkpt>
<trkpt lat="43.30741100" lon="-1.68206691">
<ele>321.00000</ele>
<time>2010-01-01T00:23:39Z</time>
</trkpt>
<trkpt lat="43.30725490" lon="-1.68129444">
<ele>335.00000</ele>
<time>2010-01-01T00:24:02Z</time>
</trkpt>
<trkpt lat="43.30659910" lon="-1.68086528">
<ele>337.00000</ele>
<time>2010-01-01T00:24:31Z</time>
</trkpt>
<trkpt lat="43.30600570" lon="-1.68120861">
<ele>323.00000</ele>
<time>2010-01-01T00:24:57Z</time>
</trkpt>
<trkpt lat="43.30503760" lon="-1.68035030">
<ele>327.00000</ele>
<time>2010-01-01T00:25:43Z</time>
</trkpt>
<trkpt lat="43.30350730" lon="-1.68129444">
<ele>322.00000</ele>
<time>2010-01-01T00:26:50Z</time>
</trkpt>
<trkpt lat="43.30282020" lon="-1.68107986">
<ele>318.00000</ele>
<time>2010-01-01T00:27:19Z</time>
</trkpt>
<trkpt lat="43.30269530" lon="-1.68026447">
<ele>335.00000</ele>
<time>2010-01-01T00:27:43Z</time>
</trkpt>
<trkpt lat="43.30200820" lon="-1.67927742">
<ele>340.00000</ele>
<time>2010-01-01T00:28:23Z</time>
</trkpt>
<trkpt lat="43.30032170" lon="-1.67893409">
<ele>317.00000</ele>
<time>2010-01-01T00:29:31Z</time>
</trkpt>
<trkpt lat="43.30032170" lon="-1.67721748">
<ele>307.00000</ele>
<time>2010-01-01T00:30:21Z</time>
</trkpt>
<trkpt lat="43.29922850" lon="-1.67485713">
<ele>281.00000</ele>
<time>2010-01-01T00:31:42Z</time>
</trkpt>
<trkpt lat="43.30054030" lon="-1.67236804">
<ele>278.00000</ele>
<time>2010-01-01T00:33:12Z</time>
</trkpt>
<trkpt lat="43.30025920" lon="-1.67082309">
<ele>284.00000</ele>
<time>2010-01-01T00:33:58Z</time>
</trkpt>
<trkpt lat="43.29972830" lon="-1.66923522">
<ele>298.00000</ele>
<time>2010-01-01T00:34:49Z</time>
</trkpt>
<trkpt lat="43.30013430" lon="-1.66794776">
<ele>297.00000</ele>
<time>2010-01-01T00:35:30Z</time>
</trkpt>
<trkpt lat="43.29972830" lon="-1.66511535">
<ele>311.00000</ele>
<time>2010-01-01T00:36:54Z</time>
</trkpt>
<trkpt lat="43.30088390" lon="-1.66395664">
<ele>318.00000</ele>
<time>2010-01-01T00:37:52Z</time>
</trkpt>
<trkpt lat="43.30063400" lon="-1.65730476">
<ele>350.00000</ele>
<time>2010-01-01T00:41:06Z</time>
</trkpt>
<trkpt lat="43.30013430" lon="-1.65588855">
<ele>355.00000</ele>
<time>2010-01-01T00:41:51Z</time>
</trkpt>
<trkpt lat="43.30066520" lon="-1.65382862">
<ele>397.00000</ele>
<time>2010-01-01T00:42:55Z</time>
</trkpt>
<trkpt lat="43.30072770" lon="-1.65215492">
<ele>405.00000</ele>
<time>2010-01-01T00:43:44Z</time>
</trkpt>
<trkpt lat="43.30085260" lon="-1.65035247">
<ele>408.00000</ele>
<time>2010-01-01T00:44:37Z</time>
</trkpt>
<trkpt lat="43.30022800" lon="-1.64824962">
<ele>395.00000</ele>
<time>2010-01-01T00:45:43Z</time>
</trkpt>
<trkpt lat="43.29916610" lon="-1.64734840">
<ele>381.00000</ele>
<time>2010-01-01T00:46:33Z</time>
</trkpt>
<trkpt lat="43.29888500" lon="-1.64481639">
<ele>346.00000</ele>
<time>2010-01-01T00:47:47Z</time>
</trkpt>
<trkpt lat="43.29744820" lon="-1.64683341">
<ele>310.00000</ele>
<time>2010-01-01T00:49:10Z</time>
</trkpt>
<trkpt lat="43.29757320" lon="-1.64533138">
<ele>301.00000</ele>
<time>2010-01-01T00:49:54Z</time>
</trkpt>
<trkpt lat="43.29623010" lon="-1.64335727">
<ele>282.00000</ele>
<time>2010-01-01T00:51:12Z</time>
</trkpt>
<trkpt lat="43.29707340" lon="-1.64228439">
<ele>310.00000</ele>
<time>2010-01-01T00:51:58Z</time>
</trkpt>
<trkpt lat="43.29741700" lon="-1.63842201">
<ele>332.00000</ele>
<time>2010-01-01T00:53:52Z</time>
</trkpt>
<trkpt lat="43.29826030" lon="-1.63507461">
<ele>358.00000</ele>
<time>2010-01-01T00:55:35Z</time>
</trkpt>
<trkpt lat="43.29829150" lon="-1.63335800">
<ele>382.00000</ele>
<time>2010-01-01T00:56:25Z</time>
</trkpt>
<trkpt lat="43.29557420" lon="-1.63365840">
<ele>351.00000</ele>
<time>2010-01-01T00:58:14Z</time>
</trkpt>
<trkpt lat="43.29601140" lon="-1.63254261">
<ele>353.00000</ele>
<time>2010-01-01T00:58:51Z</time>
</trkpt>
<trkpt lat="43.29460590" lon="-1.62825107">
<ele>324.00000</ele>
<time>2010-01-01T01:01:08Z</time>
</trkpt>
<trkpt lat="43.29391870" lon="-1.62782192">
<ele>319.00000</ele>
<time>2010-01-01T01:01:38Z</time>
</trkpt>
<trkpt lat="43.29304410" lon="-1.62889480">
<ele>323.00000</ele>
<time>2010-01-01T01:02:25Z</time>
</trkpt>
<trkpt lat="43.29188830" lon="-1.62945270">
<ele>334.00000</ele>
<time>2010-01-01T01:03:14Z</time>
</trkpt>
<trkpt lat="43.29085750" lon="-1.62889480">
<ele>336.00000</ele>
<time>2010-01-01T01:03:59Z</time>
</trkpt>
<trkpt lat="43.28970170" lon="-1.62936687">
<ele>326.00000</ele>
<time>2010-01-01T01:04:47Z</time>
</trkpt>
<trkpt lat="43.28773370" lon="-1.62975311">
<ele>313.00000</ele>
<time>2010-01-01T01:06:07Z</time>
</trkpt>
<trkpt lat="43.28682780" lon="-1.62962436">
<ele>302.00000</ele>
<time>2010-01-01T01:06:43Z</time>
</trkpt>
<trkpt lat="43.28579690" lon="-1.63065433">
<ele>274.00000</ele>
<time>2010-01-01T01:07:34Z</time>
</trkpt>
<trkpt lat="43.28485970" lon="-1.63129806">
<ele>248.00000</ele>
<time>2010-01-01T01:08:16Z</time>
</trkpt>
<trkpt lat="43.28426610" lon="-1.63245677">
<ele>230.00000</ele>
<time>2010-01-01T01:08:57Z</time>
</trkpt>
<trkpt lat="43.28407860" lon="-1.63164138">
<ele>233.00000</ele>
<time>2010-01-01T01:09:22Z</time>
</trkpt>
<trkpt lat="43.28298520" lon="-1.63142681">
<ele>221.00000</ele>
<time>2010-01-01T01:10:06Z</time>
</trkpt>
<trkpt lat="43.28214170" lon="-1.63224220">
<ele>221.00000</ele>
<time>2010-01-01T01:10:48Z</time>
</trkpt>
<trkpt lat="43.28051710" lon="-1.63413047">
<ele>232.00000</ele>
<time>2010-01-01T01:12:13Z</time>
</trkpt>
<trkpt lat="43.27976730" lon="-1.63348674">
<ele>243.00000</ele>
<time>2010-01-01T01:12:48Z</time>
</trkpt>
<trkpt lat="43.27808010" lon="-1.63267135">
<ele>288.00000</ele>
<time>2010-01-01T01:14:00Z</time>
</trkpt>
<trkpt lat="43.27651790" lon="-1.63121223">
<ele>349.00000</ele>
<time>2010-01-01T01:15:15Z</time>
</trkpt>
<trkpt lat="43.27545560" lon="-1.63378715">
<ele>350.00000</ele>
<time>2010-01-01T01:16:42Z</time>
</trkpt>
<trkpt lat="43.27308090" lon="-1.63516044">
<ele>376.00000</ele>
<time>2010-01-01T01:18:25Z</time>
</trkpt>
<trkpt lat="43.27089360" lon="-1.63764953">
<ele>369.00000</ele>
<time>2010-01-01T01:20:19Z</time>
</trkpt>
<trkpt lat="43.27058110" lon="-1.63601875">
<ele>389.00000</ele>
<time>2010-01-01T01:21:08Z</time>
</trkpt>
<trkpt lat="43.26911250" lon="-1.63486003">
<ele>378.00000</ele>
<time>2010-01-01T01:22:16Z</time>
</trkpt>
<trkpt lat="43.26876870" lon="-1.63322925">
<ele>418.00000</ele>
<time>2010-01-01T01:23:05Z</time>
</trkpt>
<trkpt lat="43.26751880" lon="-1.63348674">
<ele>398.00000</ele>
<time>2010-01-01T01:23:56Z</time>
</trkpt>
<trkpt lat="43.26761250" lon="-1.63018226">
<ele>443.00000</ele>
<time>2010-01-01T01:25:32Z</time>
</trkpt>
<trkpt lat="43.26655000" lon="-1.63074016">
<ele>408.00000</ele>
<time>2010-01-01T01:26:18Z</time>
</trkpt>
<trkpt lat="43.26630000" lon="-1.62975311">
<ele>441.00000</ele>
<time>2010-01-01T01:26:48Z</time>
</trkpt>
<trkpt lat="43.26501880" lon="-1.63022518">
<ele>422.00000</ele>
<time>2010-01-01T01:27:41Z</time>
</trkpt>
<trkpt lat="43.26336250" lon="-1.62928104">
<ele>422.00000</ele>
<time>2010-01-01T01:28:53Z</time>
</trkpt>
<trkpt lat="43.26351870" lon="-1.62533283">
<ele>437.00000</ele>
<time>2010-01-01T01:30:48Z</time>
</trkpt>
<trkpt lat="43.26436250" lon="-1.62417411">
<ele>456.00000</ele>
<time>2010-01-01T01:31:36Z</time>
</trkpt>
<trkpt lat="43.26336250" lon="-1.62284374">
<ele>445.00000</ele>
<time>2010-01-01T01:32:32Z</time>
</trkpt>
<trkpt lat="43.26048730" lon="-1.61876678">
<ele>437.00000</ele>
<time>2010-01-01T01:35:17Z</time>
</trkpt>
<trkpt lat="43.25898710" lon="-1.61666393">
<ele>456.00000</ele>
<time>2010-01-01T01:36:43Z</time>
</trkpt>
<trkpt lat="43.25814320" lon="-1.61709308">
<ele>478.00000</ele>
<time>2010-01-01T01:37:19Z</time>
</trkpt>
<trkpt lat="43.25639300" lon="-1.61571979">
<ele>460.00000</ele>
<time>2010-01-01T01:38:40Z</time>
</trkpt>
<trkpt lat="43.25551780" lon="-1.61323070">
<ele>453.00000</ele>
<time>2010-01-01T01:40:00Z</time>
</trkpt>
<trkpt lat="43.25539280" lon="-1.61014080">
<ele>459.00000</ele>
<time>2010-01-01T01:41:30Z</time>
</trkpt>
<trkpt lat="43.25239220" lon="-1.60859584">
<ele>464.00000</ele>
<time>2010-01-01T01:43:39Z</time>
</trkpt>
<trkpt lat="43.25292360" lon="-1.60460472">
<ele>479.00000</ele>
<time>2010-01-01T01:45:37Z</time>
</trkpt>
<trkpt lat="43.25458020" lon="-1.60280227">
<ele>480.00000</ele>
<time>2010-01-01T01:47:02Z</time>
</trkpt>
<trkpt lat="43.25395510" lon="-1.60138607">
<ele>478.00000</ele>
<time>2010-01-01T01:47:50Z</time>
</trkpt>
<trkpt lat="43.25433010" lon="-1.60018444">
<ele>473.00000</ele>
<time>2010-01-01T01:48:28Z</time>
</trkpt>
<trkpt lat="43.25339240" lon="-1.60018444">
<ele>464.00000</ele>
<time>2010-01-01T01:49:06Z</time>
</trkpt>
<trkpt lat="43.25176710" lon="-1.59919738">
<ele>414.00000</ele>
<time>2010-01-01T01:50:17Z</time>
</trkpt>
<trkpt lat="43.25076680" lon="-1.59748077">
<ele>389.00000</ele>
<time>2010-01-01T01:51:21Z</time>
</trkpt>
</trkseg>
</trk>
</gpx>

452
iFrameGPX/GPS/HrpJ3.gpx

@ -0,0 +1,452 @@
<?xml version="1.0" encoding="UTF-8"?>
<gpx xmlns="http://www.topografix.com/GPX/1/1" xmlns:gpsies="http://www.gpsies.com/GPX/1/0" creator="GPSies http://www.gpsies.com - HRP J3" version="1.1" xmlns:xsi="http://www.w3.org/2001/XMLSchema-instance" xsi:schemaLocation="http://www.topografix.com/GPX/1/1 http://www.topografix.com/GPX/1/1/gpx.xsd http://www.gpsies.com/GPX/1/0 http://www.gpsies.com/gpsies.xsd">
<metadata>
<name>HRP J3</name>
<author>
<name>leosw</name>
<link href="http://www.gpsies.com/mapUser.do?username=leosw">
<text>leosw on GPSies.com</text>
<type>GPSiesUserOnWeb</type>
</link>
</author>
<link href="http://www.gpsies.com/map.do?fileId=znocqpeiuccczhjw">
<text>HRP J3 on GPSies.com</text>
<type>trackOnWeb</type>
</link>
<time>2015-01-27T11:28:11Z</time>
<extensions>
<gpsies:property>one-way trip</gpsies:property>
<gpsies:trackLengthMeter>22867.882681795865</gpsies:trackLengthMeter>
<gpsies:totalAscentMeter>941.0</gpsies:totalAscentMeter>
<gpsies:totalDescentMeter>806.0</gpsies:totalDescentMeter>
<gpsies:minHeightMeter>199.0</gpsies:minHeightMeter>
<gpsies:maxHeightMeter>809.0</gpsies:maxHeightMeter>
</extensions>
</metadata>
<trk>
<name>HRP J3 on GPSies.com</name>
<link href="http://www.gpsies.com/map.do?fileId=znocqpeiuccczhjw">
<type>trackOnWeb</type>
</link>
<link href="http://www.gpsies.com/charts/zn/map/znocqpeiuccczhjw_map.png">
<type>elevationChartUrlMap</type>
</link>
<link href="http://www.gpsies.com/charts/zn/mapThumb/znocqpeiuccczhjw_mapThumb.png">
<type>elevationChartUrlMapThumb</type>
</link>
<link href="http://www.gpsies.com/charts/zn/tab/znocqpeiuccczhjw_tab.png">
<type>elevationChartUrlTab</type>
</link>
<trkseg>
<trkpt lat="43.25082930" lon="-1.59773826">
<ele>389.00000</ele>
<time>2010-01-01T00:00:00Z</time>
</trkpt>
<trkpt lat="43.25007920" lon="-1.60018444">
<ele>390.00000</ele>
<time>2010-01-01T00:01:17Z</time>
</trkpt>
<trkpt lat="43.24923520" lon="-1.59966945">
<ele>402.00000</ele>
<time>2010-01-01T00:01:54Z</time>
</trkpt>
<trkpt lat="43.24832870" lon="-1.59469127">
<ele>435.00000</ele>
<time>2010-01-01T00:04:23Z</time>
</trkpt>
<trkpt lat="43.24732840" lon="-1.59383296">
<ele>441.00000</ele>
<time>2010-01-01T00:05:11Z</time>
</trkpt>
<trkpt lat="43.24739090" lon="-1.59490585">
<ele>445.00000</ele>
<time>2010-01-01T00:05:42Z</time>
</trkpt>
<trkpt lat="43.24629680" lon="-1.59507751">
<ele>452.00000</ele>
<time>2010-01-01T00:06:26Z</time>
</trkpt>
<trkpt lat="43.24210780" lon="-1.59391880">
<ele>498.00000</ele>
<time>2010-01-01T00:09:17Z</time>
</trkpt>
<trkpt lat="43.24079470" lon="-1.59602165">
<ele>526.00000</ele>
<time>2010-01-01T00:10:38Z</time>
</trkpt>
<trkpt lat="43.23923160" lon="-1.59821033">
<ele>551.00000</ele>
<time>2010-01-01T00:12:07Z</time>
</trkpt>
<trkpt lat="43.23669920" lon="-1.59765243">
<ele>560.00000</ele>
<time>2010-01-01T00:13:50Z</time>
</trkpt>
<trkpt lat="43.23557360" lon="-1.59645080">
<ele>550.00000</ele>
<time>2010-01-01T00:14:47Z</time>
</trkpt>
<trkpt lat="43.23538600" lon="-1.59348964">
<ele>539.00000</ele>
<time>2010-01-01T00:16:14Z</time>
</trkpt>
<trkpt lat="43.23588630" lon="-1.58962726">
<ele>549.00000</ele>
<time>2010-01-01T00:18:08Z</time>
</trkpt>
<trkpt lat="43.23613640" lon="-1.58469200">
<ele>551.00000</ele>
<time>2010-01-01T00:20:32Z</time>
</trkpt>
<trkpt lat="43.23713690" lon="-1.57911300">
<ele>560.00000</ele>
<time>2010-01-01T00:23:20Z</time>
</trkpt>
<trkpt lat="43.23585500" lon="-1.57589435">
<ele>554.00000</ele>
<time>2010-01-01T00:25:07Z</time>
</trkpt>
<trkpt lat="43.23485450" lon="-1.57344818">
<ele>550.00000</ele>
<time>2010-01-01T00:26:29Z</time>
</trkpt>
<trkpt lat="43.23410410" lon="-1.57237529">
<ele>541.00000</ele>
<time>2010-01-01T00:27:12Z</time>
</trkpt>
<trkpt lat="43.23216550" lon="-1.57310485">
<ele>555.00000</ele>
<time>2010-01-01T00:28:33Z</time>
</trkpt>
<trkpt lat="43.23150890" lon="-1.57430648">
<ele>558.00000</ele>
<time>2010-01-01T00:29:16Z</time>
</trkpt>
<trkpt lat="43.23013310" lon="-1.57417774">
<ele>567.00000</ele>
<time>2010-01-01T00:30:12Z</time>
</trkpt>
<trkpt lat="43.22853840" lon="-1.57357692">
<ele>589.00000</ele>
<time>2010-01-01T00:31:18Z</time>
</trkpt>
<trkpt lat="43.22581790" lon="-1.57027244">
<ele>600.00000</ele>
<time>2010-01-01T00:33:43Z</time>
</trkpt>
<trkpt lat="43.22406670" lon="-1.56662464">
<ele>594.00000</ele>
<time>2010-01-01T00:35:51Z</time>
</trkpt>
<trkpt lat="43.22347260" lon="-1.56310558">
<ele>546.00000</ele>
<time>2010-01-01T00:37:36Z</time>
</trkpt>
<trkpt lat="43.22247190" lon="-1.56134605">
<ele>525.00000</ele>
<time>2010-01-01T00:38:41Z</time>
</trkpt>
<trkpt lat="43.22087700" lon="-1.55997276">
<ele>513.00000</ele>
<time>2010-01-01T00:39:57Z</time>
</trkpt>
<trkpt lat="43.21912560" lon="-1.55774116">
<ele>522.00000</ele>
<time>2010-01-01T00:41:32Z</time>
</trkpt>
<trkpt lat="43.21815610" lon="-1.55430793">
<ele>524.00000</ele>
<time>2010-01-01T00:43:20Z</time>
</trkpt>
<trkpt lat="43.21684260" lon="-1.55113220">
<ele>508.00000</ele>
<time>2010-01-01T00:45:06Z</time>
</trkpt>
<trkpt lat="43.21440300" lon="-1.54589653">
<ele>594.00000</ele>
<time>2010-01-01T00:48:07Z</time>
</trkpt>
<trkpt lat="43.21437180" lon="-1.54435157">
<ele>620.00000</ele>
<time>2010-01-01T00:48:53Z</time>
</trkpt>
<trkpt lat="43.21349600" lon="-1.54147624">
<ele>639.00000</ele>
<time>2010-01-01T00:50:23Z</time>
</trkpt>
<trkpt lat="43.21243260" lon="-1.54104709">
<ele>629.00000</ele>
<time>2010-01-01T00:51:08Z</time>
</trkpt>
<trkpt lat="43.21193220" lon="-1.53855800">
<ele>661.00000</ele>
<time>2010-01-01T00:52:23Z</time>
</trkpt>
<trkpt lat="43.21080610" lon="-1.53821468">
<ele>688.00000</ele>
<time>2010-01-01T00:53:09Z</time>
</trkpt>
<trkpt lat="43.20936730" lon="-1.53568267">
<ele>724.00000</ele>
<time>2010-01-01T00:54:43Z</time>
</trkpt>
<trkpt lat="43.20652080" lon="-1.53426647">
<ele>766.00000</ele>
<time>2010-01-01T00:56:44Z</time>
</trkpt>
<trkpt lat="43.20420600" lon="-1.53396606">
<ele>794.00000</ele>
<time>2010-01-01T00:58:17Z</time>
</trkpt>
<trkpt lat="43.20273580" lon="-1.53508186">
<ele>795.00000</ele>
<time>2010-01-01T00:59:25Z</time>
</trkpt>
<trkpt lat="43.19941970" lon="-1.53413772">
<ele>789.00000</ele>
<time>2010-01-01T01:01:40Z</time>
</trkpt>
<trkpt lat="43.19610350" lon="-1.53413772">
<ele>792.00000</ele>
<time>2010-01-01T01:03:53Z</time>
</trkpt>
<trkpt lat="43.19303740" lon="-1.53456687">
<ele>809.00000</ele>
<time>2010-01-01T01:05:56Z</time>
</trkpt>
<trkpt lat="43.19172330" lon="-1.53611183">
<ele>790.00000</ele>
<time>2010-01-01T01:07:06Z</time>
</trkpt>
<trkpt lat="43.18728020" lon="-1.53645515">
<ele>714.00000</ele>
<time>2010-01-01T01:10:04Z</time>
</trkpt>
<trkpt lat="43.18427630" lon="-1.53697013">
<ele>666.00000</ele>
<time>2010-01-01T01:12:05Z</time>
</trkpt>
<trkpt lat="43.18264910" lon="-1.53551101">
<ele>652.00000</ele>
<time>2010-01-01T01:13:23Z</time>
</trkpt>
<trkpt lat="43.17851830" lon="-1.53430938">
<ele>573.00000</ele>
<time>2010-01-01T01:16:12Z</time>
</trkpt>
<trkpt lat="43.17388650" lon="-1.53662681">
<ele>588.00000</ele>
<time>2010-01-01T01:19:29Z</time>
</trkpt>
<trkpt lat="43.17050630" lon="-1.53388023">
<ele>583.00000</ele>
<time>2010-01-01T01:22:06Z</time>
</trkpt>
<trkpt lat="43.16793970" lon="-1.53096199">
<ele>568.00000</ele>
<time>2010-01-01T01:24:20Z</time>
</trkpt>
<trkpt lat="43.16243060" lon="-1.52838706">
<ele>506.00000</ele>
<time>2010-01-01T01:28:13Z</time>
</trkpt>
<trkpt lat="43.15980100" lon="-1.52735710">
<ele>470.00000</ele>
<time>2010-01-01T01:30:02Z</time>
</trkpt>
<trkpt lat="43.15886190" lon="-1.52606964">
<ele>463.00000</ele>
<time>2010-01-01T01:30:5